Aurora, Texas
Current Conditions -  °F | °C
As of 12:53 AM on Thursday 23 Oct 2014 (Local Time) from KAFW Reporting Station
Light Rain Light Rain  
Wind Chill: 67°   Ceiling: 9500
Heat Index: 67°   Visibility: 8mi
Dew Point: 56°   Wind: 7mph
Humidity: 68%   Direction: 140°SE
Pressure: 30.1"   Gusts: NA
Location:  33.0495°N, 97.45°W
Report Text: KAFW 230553Z 14006KT 8SM -RA FEW060 BKN095 BKN110 OVC150 19/13 A3010 RMK AO2 RAB40 SLP184 P0000 60000 T01940133 10239 20194 402720117 55001
Loading
Personal Weather Stations






























Interactive Weather Map
Tropical Storm Tracking
New forecast layout! Learn more

10-Day Weather Forecast

Advertisements
Track Severe Weather on mobile